createdAt,value
2019-03-26T00:00:40.160Z,53.30
2019-03-26T00:03:07.915Z,53.20
2019-03-26T00:05:35.770Z,53.26
2019-03-26T00:08:03.797Z,53.27
2019-03-26T00:10:31.587Z,53.23
2019-03-26T00:12:59.338Z,53.01
2019-03-26T00:15:27.111Z,53.12
2019-03-26T00:17:54.840Z,53.19
2019-03-26T00:20:22.608Z,53.27
2019-03-26T00:22:50.445Z,53.18
2019-03-26T00:25:18.281Z,53.17
2019-03-26T00:27:46.049Z,53.20
2019-03-26T00:30:13.843Z,53.24
2019-03-26T00:32:41.646Z,53.29
2019-03-26T00:35:09.456Z,53.08
2019-03-26T00:37:37.371Z,53.16
2019-03-26T00:40:05.704Z,53.45
2019-03-26T00:42:33.487Z,53.77
2019-03-26T00:45:01.239Z,53.79
2019-03-26T00:47:29.046Z,54.04
2019-03-26T00:49:56.829Z,54.10
2019-03-26T00:52:24.631Z,54.07
2019-03-26T00:54:52.531Z,54.21
2019-03-26T00:57:20.252Z,54.21
2019-03-26T00:59:48.031Z,54.21
2019-03-26T01:02:15.819Z,54.39
2019-03-26T01:04:43.671Z,54.41
2019-03-26T01:07:11.490Z,54.61
2019-03-26T01:09:39.234Z,54.63
2019-03-26T01:12:06.979Z,54.70
2019-03-26T01:14:34.752Z,54.71
2019-03-26T01:17:02.540Z,54.82
2019-03-26T01:19:30.301Z,54.83
2019-03-26T01:21:58.141Z,54.86
2019-03-26T01:24:25.913Z,54.93
2019-03-26T01:26:53.785Z,55.03
2019-03-26T01:29:21.603Z,55.04
2019-03-26T01:31:49.364Z,55.05
2019-03-26T01:34:17.101Z,55.07
2019-03-26T01:36:44.862Z,55.00
2019-03-26T01:39:12.619Z,54.94
2019-03-26T01:41:40.476Z,54.91
2019-03-26T01:44:08.335Z,55.02
2019-03-26T01:46:36.075Z,55.00
2019-03-26T01:49:03.858Z,55.02
2019-03-26T01:51:31.699Z,55.05
2019-03-26T01:53:59.433Z,55.24
2019-03-26T01:56:27.172Z,55.11
2019-03-26T01:58:54.909Z,55.08
2019-03-26T02:01:22.699Z,55.06
2019-03-26T02:03:50.604Z,55.13
2019-03-26T02:06:18.306Z,55.15
2019-03-26T02:08:46.052Z,55.10
2019-03-26T02:11:13.828Z,55.01
2019-03-26T02:13:41.600Z,55.01
2019-03-26T02:16:09.331Z,55.06
2019-03-26T02:18:37.155Z,55.04
2019-03-26T02:21:04.927Z,54.96
2019-03-26T02:23:32.859Z,55.13
2019-03-26T02:26:00.620Z,55.03
2019-03-26T02:28:28.411Z,55.08
2019-03-26T02:30:56.243Z,55.02
2019-03-26T02:33:24.061Z,54.97
2019-03-26T02:35:52.023Z,54.86
2019-03-26T02:38:19.767Z,54.89
2019-03-26T02:40:47.569Z,54.82
2019-03-26T02:43:15.315Z,54.75
2019-03-26T02:45:43.124Z,54.49
2019-03-26T02:48:10.883Z,54.74
2019-03-26T02:50:38.623Z,54.66
2019-03-26T02:53:08.689Z,54.70
2019-03-26T02:55:36.438Z,54.68
2019-03-26T02:58:04.191Z,54.61
2019-03-26T03:00:31.970Z,54.58
2019-03-26T03:02:59.752Z,54.52
2019-03-26T03:05:35.128Z,54.70
2019-03-26T03:07:57.516Z,54.75
2019-03-26T03:10:25.335Z,54.77
2019-03-26T03:12:53.237Z,54.79
2019-03-26T03:15:20.968Z,54.98
2019-03-26T03:17:48.741Z,55.13
2019-03-26T03:20:16.489Z,55.09
2019-03-26T03:22:44.246Z,55.32
2019-03-26T03:25:12.035Z,55.46
2019-03-26T03:27:39.805Z,55.40
2019-03-26T03:30:07.581Z,55.44
2019-03-26T03:32:35.442Z,55.36
2019-03-26T03:35:03.314Z,55.43
2019-03-26T03:37:31.218Z,55.53
2019-03-26T03:39:58.991Z,55.51
2019-03-26T03:42:26.767Z,55.60
2019-03-26T03:44:54.621Z,55.59
2019-03-26T03:47:22.354Z,55.71
2019-03-26T03:49:50.214Z,55.61
2019-03-26T03:52:17.923Z,55.62
2019-03-26T03:54:45.847Z,55.67
2019-03-26T03:57:13.871Z,55.68
2019-03-26T03:59:41.785Z,55.39
2019-03-26T04:02:09.555Z,55.37
2019-03-26T04:04:37.331Z,55.48
2019-03-26T04:07:05.115Z,55.24
2019-03-26T04:09:32.919Z,55.29
2019-03-26T04:12:00.820Z,55.04
2019-03-26T04:14:28.575Z,55.26
2019-03-26T04:16:56.308Z,55.58
2019-03-26T04:19:24.063Z,55.70
2019-03-26T04:21:51.826Z,55.72
2019-03-26T04:24:19.591Z,55.58
2019-03-26T04:26:47.443Z,55.59
2019-03-26T04:29:15.186Z,55.49
2019-03-26T04:31:42.927Z,55.36
2019-03-26T04:34:10.643Z,55.39
2019-03-26T04:36:38.401Z,54.99
2019-03-26T04:39:06.539Z,54.95
2019-03-26T04:41:34.466Z,54.84
2019-03-26T04:44:02.205Z,54.72
2019-03-26T04:46:29.949Z,54.76
2019-03-26T04:48:57.712Z,54.56
2019-03-26T04:51:25.474Z,54.87
2019-03-26T04:53:53.259Z,55.01
2019-03-26T04:56:21.018Z,54.83
2019-03-26T04:58:48.760Z,54.55
2019-03-26T05:01:16.486Z,54.66
2019-03-26T05:03:44.229Z,54.50
2019-03-26T05:06:12.103Z,54.56
2019-03-26T05:08:40.018Z,54.57
2019-03-26T05:11:07.769Z,54.43
2019-03-26T05:13:35.530Z,54.43
2019-03-26T05:16:03.311Z,54.47
2019-03-26T05:18:31.087Z,54.32
2019-03-26T05:20:59.016Z,54.36
2019-03-26T05:23:26.851Z,54.38
2019-03-26T05:25:54.679Z,54.49
2019-03-26T05:28:22.551Z,54.75
2019-03-26T05:30:52.224Z,54.88
2019-03-26T05:33:22.289Z,54.79
2019-03-26T05:35:51.641Z,55.21
2019-03-26T05:38:19.759Z,55.12
2019-03-26T05:40:47.800Z,54.97
2019-03-26T05:43:16.085Z,55.21
2019-03-26T05:45:45.992Z,55.24
2019-03-26T05:48:14.222Z,55.20
2019-03-26T05:50:42.194Z,55.09
2019-03-26T05:53:10.370Z,55.00
2019-03-26T05:55:38.151Z,54.80
2019-03-26T05:58:06.096Z,54.47
2019-03-26T06:00:33.892Z,54.11
2019-03-26T06:03:01.610Z,53.72
2019-03-26T06:05:29.489Z,53.58
2019-03-26T06:07:57.265Z,53.17
2019-03-26T06:10:25.014Z,53.33
2019-03-26T06:12:53.090Z,55.89
2019-03-26T06:15:20.909Z,56.28
2019-03-26T06:17:48.678Z,55.82
2019-03-26T06:20:16.516Z,55.65
2019-03-26T06:22:44.436Z,54.93
2019-03-26T06:25:12.267Z,54.45
2019-03-26T06:27:40.026Z,54.76
2019-03-26T06:30:08.345Z,54.65
2019-03-26T06:32:36.128Z,54.55
2019-03-26T06:35:04.860Z,54.63
2019-03-26T06:37:32.610Z,54.60
2019-03-26T06:40:00.686Z,54.59
2019-03-26T06:42:28.548Z,54.53
2019-03-26T06:44:56.402Z,54.77
2019-03-26T06:47:24.153Z,54.58
2019-03-26T06:49:52.003Z,54.43
2019-03-26T06:52:19.839Z,54.47
2019-03-26T06:54:51.592Z,54.43
2019-03-26T06:57:18.689Z,54.41
2019-03-26T06:59:47.063Z,54.02
2019-03-26T07:02:20.941Z,53.79
2019-03-26T07:04:49.297Z,53.92
2019-03-26T07:07:30.573Z,53.77
2019-03-26T07:09:47.079Z,53.74
2019-03-26T07:12:14.823Z,53.78
2019-03-26T07:14:42.580Z,53.75
2019-03-26T07:17:10.344Z,53.46
2019-03-26T07:19:38.158Z,53.42
2019-03-26T07:22:06.306Z,53.18
2019-03-26T07:24:39.787Z,53.13
2019-03-26T07:27:08.821Z,53.16
2019-03-26T07:29:36.520Z,53.19
2019-03-26T07:32:04.265Z,53.03
2019-03-26T07:34:32.081Z,52.89
2019-03-26T07:36:59.834Z,52.74
2019-03-26T07:39:27.529Z,52.63
2019-03-26T07:41:55.382Z,52.55
2019-03-26T07:44:23.098Z,52.38
2019-03-26T07:46:50.898Z,52.16
2019-03-26T07:49:18.828Z,52.25
2019-03-26T07:51:46.601Z,52.24
2019-03-26T07:54:14.477Z,52.08
2019-03-26T07:56:42.275Z,52.10
2019-03-26T07:59:10.001Z,51.86
2019-03-26T08:01:37.722Z,52.04
2019-03-26T08:04:05.511Z,51.82
2019-03-26T08:06:33.365Z,51.81
2019-03-26T08:09:01.123Z,51.89
2019-03-26T08:11:28.904Z,51.78
2019-03-26T08:13:56.867Z,51.55
2019-03-26T08:16:24.613Z,51.53
2019-03-26T08:18:52.310Z,51.68
2019-03-26T08:21:20.056Z,51.73
2019-03-26T08:23:47.819Z,51.56
2019-03-26T08:26:15.830Z,51.47
2019-03-26T08:28:43.922Z,51.13
2019-03-26T08:31:11.684Z,51.40
2019-03-26T08:33:39.486Z,51.39
2019-03-26T08:36:07.239Z,51.44
2019-03-26T08:38:35.025Z,51.25
2019-03-26T08:41:02.779Z,51.13
2019-03-26T08:43:30.563Z,51.12
2019-03-26T08:45:58.369Z,51.21
2019-03-26T08:48:26.115Z,51.13
2019-03-26T08:50:54.178Z,50.87
2019-03-26T08:53:22.076Z,51.02
2019-03-26T08:55:49.851Z,50.82
2019-03-26T08:58:17.581Z,50.63
2019-03-26T09:00:45.332Z,50.69
2019-03-26T09:03:13.199Z,50.41
2019-03-26T09:05:40.912Z,50.38
2019-03-26T09:08:08.682Z,50.30
2019-03-26T09:10:36.411Z,50.13
2019-03-26T09:13:04.232Z,50.21
2019-03-26T09:15:32.021Z,50.02
2019-03-26T09:17:59.814Z,50.11
2019-03-26T09:20:27.692Z,50.07
2019-03-26T09:22:55.443Z,49.74
2019-03-26T09:25:23.189Z,49.77
2019-03-26T09:27:52.456Z,49.67
2019-03-26T09:30:20.506Z,49.67
2019-03-26T09:32:48.247Z,49.70
2019-03-26T09:35:16.008Z,49.65
2019-03-26T09:37:43.799Z,49.39
2019-03-26T09:40:11.560Z,49.39
2019-03-26T09:42:39.310Z,49.40
2019-03-26T09:45:07.901Z,49.33
2019-03-26T09:47:35.626Z,49.27
2019-03-26T09:50:04.239Z,49.24
2019-03-26T09:52:31.983Z,49.32
2019-03-26T09:54:59.767Z,49.13
2019-03-26T09:57:27.489Z,49.09
2019-03-26T09:59:55.304Z,48.92
2019-03-26T10:02:23.042Z,48.98
2019-03-26T10:04:50.923Z,48.91
2019-03-26T10:07:21.616Z,48.95
2019-03-26T10:09:48.315Z,49.02
2019-03-26T10:12:16.306Z,48.88
2019-03-26T10:14:44.028Z,49.04
2019-03-26T10:17:11.823Z,49.09
2019-03-26T10:19:39.614Z,48.88
2019-03-26T10:22:08.475Z,48.85
2019-03-26T10:24:36.380Z,48.92
2019-03-26T10:27:04.349Z,48.81
2019-03-26T10:29:32.255Z,48.79
2019-03-26T10:31:59.962Z,48.66
2019-03-26T10:34:28.007Z,48.71
2019-03-26T10:36:55.737Z,48.58
2019-03-26T10:39:23.526Z,48.63
2019-03-26T10:41:51.416Z,48.47
2019-03-26T10:44:19.258Z,48.45
2019-03-26T10:46:47.011Z,48.40
2019-03-26T10:49:14.782Z,48.53
2019-03-26T10:51:42.583Z,48.61
2019-03-26T10:54:10.310Z,48.33
2019-03-26T10:56:38.144Z,48.20
2019-03-26T10:59:06.077Z,48.30
2019-03-26T11:01:33.926Z,48.41
2019-03-26T11:04:01.835Z,48.53
2019-03-26T11:06:29.845Z,48.92
2019-03-26T11:08:57.728Z,49.05
2019-03-26T11:11:25.808Z,49.10
2019-03-26T11:13:53.802Z,49.06
2019-03-26T11:16:22.880Z,49.20
2019-03-26T11:18:50.821Z,49.33
2019-03-26T11:21:18.850Z,49.31
2019-03-26T11:23:46.612Z,49.60
2019-03-26T11:26:14.442Z,49.67
2019-03-26T11:28:42.376Z,49.80
2019-03-26T11:31:10.367Z,49.59
2019-03-26T11:33:38.743Z,49.86
2019-03-26T11:36:06.764Z,49.81
2019-03-26T11:38:34.712Z,49.85
2019-03-26T11:41:02.755Z,49.67
2019-03-26T11:43:32.102Z,49.74
2019-03-26T11:46:00.125Z,49.49
2019-03-26T11:48:27.874Z,49.23
2019-03-26T11:50:55.652Z,49.14
2019-03-26T11:53:23.359Z,48.97
2019-03-26T11:55:51.075Z,48.85
2019-03-26T11:58:29.992Z,49.70
2019-03-26T12:00:48.547Z,50.46
2019-03-26T12:03:16.236Z,50.49
2019-03-26T12:05:44.099Z,50.22
2019-03-26T12:08:11.847Z,50.12
2019-03-26T12:10:39.547Z,50.05
2019-03-26T12:13:07.380Z,49.94
2019-03-26T12:15:35.171Z,50.04
2019-03-26T12:18:02.959Z,49.88
2019-03-26T12:20:30.691Z,49.69
2019-03-26T12:22:58.469Z,49.72
2019-03-26T12:25:26.220Z,49.55
2019-03-26T12:27:54.041Z,49.35
2019-03-26T12:30:35.404Z,49.29
2019-03-26T12:33:03.414Z,49.16
2019-03-26T12:35:31.276Z,48.98
2019-03-26T12:37:59.048Z,48.93
2019-03-26T12:40:26.861Z,48.72
2019-03-26T12:42:54.622Z,48.75
2019-03-26T12:45:22.461Z,48.75
2019-03-26T12:47:50.501Z,48.83
2019-03-26T12:50:18.387Z,48.98
2019-03-26T12:52:46.103Z,49.10
2019-03-26T12:55:13.875Z,49.16
2019-03-26T12:57:41.686Z,49.01
2019-03-26T13:00:09.502Z,49.16
2019-03-26T13:02:37.287Z,49.24
2019-03-26T13:05:05.198Z,49.15
2019-03-26T13:07:33.054Z,48.97
2019-03-26T13:10:12.838Z,48.93
2019-03-26T13:12:30.403Z,49.29
2019-03-26T13:14:59.491Z,49.19
2019-03-26T13:17:32.130Z,49.07
2019-03-26T13:19:59.911Z,48.90
2019-03-26T13:22:27.736Z,48.85
2019-03-26T13:24:55.553Z,48.99
2019-03-26T13:27:23.321Z,49.23
2019-03-26T13:29:51.065Z,49.27
2019-03-26T13:32:18.933Z,49.20
2019-03-26T13:34:46.643Z,49.07
2019-03-26T13:37:14.419Z,49.25
2019-03-26T13:39:42.139Z,49.08
2019-03-26T13:42:09.981Z,49.15
2019-03-26T13:44:37.747Z,49.40
2019-03-26T13:47:05.517Z,49.73
2019-03-26T13:49:33.315Z,49.64
2019-03-26T13:52:01.262Z,49.39
2019-03-26T13:54:29.202Z,49.21
2019-03-26T13:56:57.077Z,49.25
2019-03-26T13:59:24.871Z,49.23
2019-03-26T14:01:52.697Z,49.42
2019-03-26T14:04:20.461Z,49.21
2019-03-26T14:06:48.342Z,49.39
2019-03-26T14:09:16.095Z,49.28
2019-03-26T14:11:43.992Z,49.26
2019-03-26T14:14:11.887Z,49.19
2019-03-26T14:16:39.637Z,49.03
2019-03-26T14:19:07.423Z,49.02
2019-03-26T14:21:35.175Z,48.97
2019-03-26T14:24:02.923Z,49.06
2019-03-26T14:26:30.697Z,49.23
2019-03-26T14:28:58.465Z,49.24
2019-03-26T14:31:26.179Z,49.20
2019-03-26T14:33:54.078Z,49.28
2019-03-26T14:36:21.822Z,49.26
2019-03-26T14:38:50.459Z,49.32
2019-03-26T14:41:18.258Z,49.47
2019-03-26T14:43:46.167Z,49.54
2019-03-26T14:46:14.057Z,49.52
2019-03-26T14:48:41.804Z,49.58
2019-03-26T14:51:09.679Z,49.55
2019-03-26T14:53:37.471Z,49.59
2019-03-26T14:56:05.771Z,49.65
2019-03-26T14:58:33.527Z,49.66
2019-03-26T15:01:01.356Z,49.66
2019-03-26T15:03:29.146Z,49.63
2019-03-26T15:06:00.666Z,49.63
2019-03-26T15:08:28.563Z,49.60
2019-03-26T15:11:07.489Z,49.65
2019-03-26T15:13:25.946Z,49.68
2019-03-26T15:15:54.795Z,49.69
2019-03-26T15:18:22.746Z,49.75
2019-03-26T15:20:50.910Z,49.75
2019-03-26T15:23:24.275Z,49.81
2019-03-26T15:25:58.979Z,49.76
2019-03-26T15:28:26.811Z,49.75
2019-03-26T15:30:54.589Z,49.82
2019-03-26T15:33:22.344Z,49.74
2019-03-26T15:35:50.102Z,49.73
2019-03-26T15:38:18.030Z,49.85
2019-03-26T15:40:45.810Z,49.89
2019-03-26T15:43:13.881Z,49.89
2019-03-26T15:45:41.622Z,49.93
2019-03-26T15:48:09.619Z,49.94
2019-03-26T15:50:41.190Z,49.94
2019-03-26T15:53:08.924Z,49.84
2019-03-26T15:55:36.695Z,49.85
2019-03-26T15:58:04.425Z,49.79
2019-03-26T16:00:32.424Z,49.84
2019-03-26T16:03:00.171Z,49.89
2019-03-26T16:05:28.271Z,49.74
2019-03-26T16:07:56.038Z,49.80
2019-03-26T16:10:23.821Z,49.87
2019-03-26T16:12:51.641Z,49.87
2019-03-26T16:15:19.537Z,49.84
2019-03-26T16:17:47.259Z,49.88
2019-03-26T16:20:15.177Z,49.87
2019-03-26T16:22:43.110Z,49.85
2019-03-26T16:25:10.821Z,49.86
2019-03-26T16:27:38.587Z,49.87
2019-03-26T16:30:06.333Z,49.89
2019-03-26T16:32:34.098Z,49.89
2019-03-26T16:35:02.141Z,49.91
2019-03-26T16:37:29.873Z,49.94
2019-03-26T16:39:57.627Z,49.92
2019-03-26T16:42:25.425Z,49.79
2019-03-26T16:44:53.271Z,49.85
2019-03-26T16:47:20.983Z,49.89
2019-03-26T16:49:48.845Z,49.89
2019-03-26T16:52:16.616Z,49.87
2019-03-26T16:54:44.323Z,49.86
2019-03-26T16:57:12.070Z,49.86
2019-03-26T16:59:39.906Z,49.83
2019-03-26T17:02:07.672Z,49.84
2019-03-26T17:04:35.426Z,49.84
2019-03-26T17:07:03.325Z,49.91
2019-03-26T17:09:31.128Z,49.88
2019-03-26T17:12:03.603Z,49.90
2019-03-26T17:14:36.580Z,50.15
2019-03-26T17:17:04.545Z,50.50
2019-03-26T17:19:32.747Z,50.59
2019-03-26T17:22:00.639Z,50.75
2019-03-26T17:24:28.505Z,50.84
2019-03-26T17:26:56.452Z,50.97
2019-03-26T17:29:25.589Z,50.97
2019-03-26T17:31:54.417Z,51.13
2019-03-26T17:34:22.349Z,51.14
2019-03-26T17:36:50.330Z,51.10
2019-03-26T17:39:18.399Z,51.15
2019-03-26T17:41:46.264Z,51.15
2019-03-26T17:44:14.136Z,51.13
2019-03-26T17:46:42.033Z,51.11
2019-03-26T17:49:09.809Z,51.13
2019-03-26T17:51:40.621Z,51.04
2019-03-26T17:54:08.831Z,51.13
2019-03-26T17:56:36.749Z,51.31
2019-03-26T17:59:07.166Z,51.33
2019-03-26T18:01:37.178Z,51.44
2019-03-26T18:04:05.802Z,51.46
2019-03-26T18:06:34.331Z,51.57
2019-03-26T18:09:02.240Z,51.38
2019-03-26T18:11:31.287Z,51.50
2019-03-26T18:13:59.289Z,51.45
2019-03-26T18:16:27.149Z,51.59
2019-03-26T18:18:55.150Z,51.79
2019-03-26T18:21:22.910Z,51.72
2019-03-26T18:23:50.774Z,51.49
2019-03-26T18:26:18.545Z,51.33
2019-03-26T18:28:46.259Z,51.25
2019-03-26T18:31:14.075Z,51.22
2019-03-26T18:33:41.815Z,51.11
2019-03-26T18:36:09.662Z,51.16
2019-03-26T18:38:37.390Z,51.05
2019-03-26T18:41:05.188Z,51.03
2019-03-26T18:43:32.939Z,51.13
2019-03-26T18:46:00.661Z,51.10
2019-03-26T18:48:28.532Z,50.96
2019-03-26T18:50:56.253Z,50.91
2019-03-26T18:53:24.010Z,50.92
2019-03-26T18:55:51.783Z,50.93
2019-03-26T18:58:19.579Z,51.19
2019-03-26T19:00:47.333Z,51.14
2019-03-26T19:03:15.082Z,51.24
2019-03-26T19:05:42.868Z,51.25
2019-03-26T19:08:10.653Z,51.47
2019-03-26T19:10:39.015Z,51.91
2019-03-26T19:13:18.471Z,51.97
2019-03-26T19:15:36.874Z,52.04
2019-03-26T19:18:04.771Z,51.98
2019-03-26T19:20:32.690Z,52.02
2019-03-26T19:23:00.714Z,52.00
2019-03-26T19:25:28.790Z,51.92
2019-03-26T19:27:56.772Z,51.91
2019-03-26T19:30:24.646Z,51.92
2019-03-26T19:32:52.452Z,52.04
2019-03-26T19:35:20.384Z,52.17
2019-03-26T19:37:48.142Z,52.33
2019-03-26T19:40:15.935Z,52.50
2019-03-26T19:42:43.735Z,52.54
2019-03-26T19:45:11.488Z,52.55
2019-03-26T19:47:39.286Z,52.66
2019-03-26T19:50:07.097Z,52.71
2019-03-26T19:52:34.851Z,52.75
2019-03-26T19:55:02.624Z,52.72
2019-03-26T19:57:30.449Z,52.67
2019-03-26T19:59:58.283Z,52.79
2019-03-26T20:02:26.023Z,52.66
2019-03-26T20:04:53.847Z,52.69
2019-03-26T20:07:21.797Z,52.65
2019-03-26T20:09:50.141Z,52.64
2019-03-26T20:12:19.604Z,52.69
2019-03-26T20:14:47.530Z,52.81
2019-03-26T20:17:15.400Z,52.75
2019-03-26T20:19:43.297Z,52.79
2019-03-26T20:22:11.132Z,52.89
2019-03-26T20:24:38.889Z,52.58
2019-03-26T20:27:06.780Z,52.56
2019-03-26T20:29:34.595Z,52.61
2019-03-26T20:32:02.289Z,52.50
2019-03-26T20:34:30.185Z,52.37
2019-03-26T20:36:58.057Z,52.39
2019-03-26T20:39:25.829Z,52.33
2019-03-26T20:41:53.761Z,52.34
2019-03-26T20:44:21.562Z,52.37
2019-03-26T20:46:49.342Z,52.48
2019-03-26T20:49:17.163Z,52.33
2019-03-26T20:51:44.918Z,52.42
2019-03-26T20:54:12.732Z,52.29
2019-03-26T20:56:40.914Z,52.35
2019-03-26T20:59:08.862Z,52.25
2019-03-26T21:01:36.861Z,52.35
2019-03-26T21:04:04.590Z,52.39
2019-03-26T21:06:32.452Z,52.45
2019-03-26T21:09:00.243Z,52.41
2019-03-26T21:11:28.054Z,52.47
2019-03-26T21:13:55.999Z,52.50
2019-03-26T21:16:23.778Z,52.60
2019-03-26T21:18:51.526Z,52.61
2019-03-26T21:21:19.322Z,52.61
2019-03-26T21:23:47.048Z,52.64
2019-03-26T21:26:14.918Z,52.78
2019-03-26T21:28:42.680Z,52.87
2019-03-26T21:31:10.401Z,52.74
2019-03-26T21:33:38.156Z,52.54
2019-03-26T21:36:06.199Z,52.44
2019-03-26T21:38:33.981Z,52.35
2019-03-26T21:41:01.708Z,52.34
2019-03-26T21:43:29.545Z,52.28
2019-03-26T21:45:57.289Z,52.46
2019-03-26T21:48:25.077Z,52.57
2019-03-26T21:50:52.830Z,52.57
2019-03-26T21:53:20.588Z,52.44
2019-03-26T21:55:48.622Z,52.35
2019-03-26T21:58:17.385Z,52.36
2019-03-26T22:00:48.666Z,52.44
2019-03-26T22:03:16.377Z,52.44
2019-03-26T22:05:44.100Z,52.38
2019-03-26T22:08:11.909Z,52.41
2019-03-26T22:10:39.818Z,52.52
2019-03-26T22:13:07.742Z,52.35
2019-03-26T22:15:35.848Z,52.70
2019-03-26T22:18:04.026Z,52.61
2019-03-26T22:20:31.927Z,52.83
2019-03-26T22:23:03.991Z,53.11
2019-03-26T22:25:34.896Z,53.59
2019-03-26T22:28:03.036Z,53.76
2019-03-26T22:30:31.041Z,53.93
2019-03-26T22:32:58.923Z,54.02
2019-03-26T22:35:29.630Z,54.08
2019-03-26T22:37:57.881Z,54.13
2019-03-26T22:40:25.667Z,54.15
2019-03-26T22:42:53.433Z,54.08
2019-03-26T22:45:21.315Z,53.97
2019-03-26T22:47:49.091Z,54.03
2019-03-26T22:50:16.838Z,53.88
2019-03-26T22:52:44.599Z,53.78
2019-03-26T22:55:12.328Z,53.72
2019-03-26T22:57:40.080Z,53.66
2019-03-26T23:00:10.312Z,53.59
2019-03-26T23:02:38.646Z,53.61
2019-03-26T23:05:06.970Z,53.64
2019-03-26T23:07:34.723Z,53.49
2019-03-26T23:10:02.614Z,53.50
2019-03-26T23:12:30.660Z,53.60
2019-03-26T23:15:00.423Z,53.61
2019-03-26T23:17:31.332Z,54.24
2019-03-26T23:19:59.488Z,53.88
2019-03-26T23:22:28.310Z,53.54
2019-03-26T23:24:59.504Z,53.73
2019-03-26T23:27:27.671Z,53.72
2019-03-26T23:29:55.943Z,53.84
2019-03-26T23:32:24.204Z,53.97
2019-03-26T23:34:52.778Z,54.14
2019-03-26T23:37:20.922Z,54.13
2019-03-26T23:39:48.708Z,54.01
2019-03-26T23:42:17.158Z,54.10
2019-03-26T23:44:57.519Z,54.08
2019-03-26T23:47:14.883Z,54.23
2019-03-26T23:49:42.658Z,54.14
2019-03-26T23:52:10.474Z,53.95
2019-03-26T23:54:38.376Z,54.01
2019-03-26T23:57:06.358Z,53.96
2019-03-26T23:59:34.451Z,53.80
